sensor_id;sensor_type;location;lat;lon;timestamp;pressure;altitude;pressure_sealevel;temperature;humidity
78679;BME280;67994;59.334;13.528;2024-01-30T00:00:00;102000.0;;;3.1;82.3
78679;BME280;67994;59.334;13.528;2024-01-30T00:01:00;102000.0;;;3.0;82.6
78679;BME280;67994;59.334;13.528;2024-01-30T00:02:00;102000.0;;;3.0;82.5
78679;BME280;67994;59.334;13.528;2024-01-30T00:03:00;102000.0;;;3.1;82.3
78679;BME280;67994;59.334;13.528;2024-01-30T00:04:00;102000.0;;;3.1;82.3
78679;BME280;67994;59.334;13.528;2024-01-30T00:05:00;102000.0;;;3.2;82.1
78679;BME280;67994;59.334;13.528;2024-01-30T00:06:00;102000.0;;;3.3;81.8
78679;BME280;67994;59.334;13.528;2024-01-30T00:07:00;102000.0;;;3.5;81.0
78679;BME280;67994;59.334;13.528;2024-01-30T00:08:00;102000.0;;;3.3;81.6
78679;BME280;67994;59.334;13.528;2024-01-30T00:09:00;102000.0;;;3.2;81.8
78679;BME280;67994;59.334;13.528;2024-01-30T00:10:00;102000.0;;;3.3;81.4
78679;BME280;67994;59.334;13.528;2024-01-30T00:11:00;102000.0;;;3.4;81.5
78679;BME280;67994;59.334;13.528;2024-01-30T00:12:00;102000.0;;;3.4;81.3
78679;BME280;67994;59.334;13.528;2024-01-30T00:13:00;102000.0;;;3.2;81.9
78679;BME280;67994;59.334;13.528;2024-01-30T00:14:00;102000.0;;;3.4;81.3
78679;BME280;67994;59.334;13.528;2024-01-30T00:15:00;102000.0;;;3.5;81.0
78679;BME280;67994;59.334;13.528;2024-01-30T00:16:00;102000.0;;;3.7;80.6
78679;BME280;67994;59.334;13.528;2024-01-30T00:17:00;102000.0;;;4.0;79.6
78679;BME280;67994;59.334;13.528;2024-01-30T00:18:00;102000.0;;;4.0;79.5
78679;BME280;67994;59.334;13.528;2024-01-30T00:19:00;102000.0;;;4.0;79.5
78679;BME280;67994;59.334;13.528;2024-01-30T00:20:00;102000.0;;;4.1;78.9
78679;BME280;67994;59.334;13.528;2024-01-30T00:21:00;102000.0;;;4.2;78.9
78679;BME280;67994;59.334;13.528;2024-01-30T00:22:00;102000.0;;;4.1;78.7
78679;BME280;67994;59.334;13.528;2024-01-30T00:23:00;102000.0;;;4.0;79.0
78679;BME280;67994;59.334;13.528;2024-01-30T00:24:00;102000.0;;;3.9;79.4
78679;BME280;67994;59.334;13.528;2024-01-30T00:25:00;102000.0;;;3.4;81.2
78679;BME280;67994;59.334;13.528;2024-01-30T00:26:00;102000.0;;;3.5;80.7
78679;BME280;67994;59.334;13.528;2024-01-30T00:27:00;102000.0;;;4.0;79.9
78679;BME280;67994;59.334;13.528;2024-01-30T00:28:00;102000.0;;;4.0;79.4
78679;BME280;67994;59.334;13.528;2024-01-30T00:29:00;102000.0;;;4.3;78.7
78679;BME280;67994;59.334;13.528;2024-01-30T00:30:00;102000.0;;;4.1;78.5
78679;BME280;67994;59.334;13.528;2024-01-30T00:31:00;102000.0;;;4.3;78.1
78679;BME280;67994;59.334;13.528;2024-01-30T00:32:00;102000.0;;;4.5;77.9
78679;BME280;67994;59.334;13.528;2024-01-30T00:33:00;102000.0;;;4.6;77.7
78679;BME280;67994;59.334;13.528;2024-01-30T00:34:00;102000.0;;;4.5;77.6
78679;BME280;67994;59.334;13.528;2024-01-30T00:35:00;102000.0;;;4.6;77.7
78679;BME280;67994;59.334;13.528;2024-01-30T00:36:00;102000.0;;;4.5;77.6
78679;BME280;67994;59.334;13.528;2024-01-30T00:37:00;102000.0;;;4.4;77.7
78679;BME280;67994;59.334;13.528;2024-01-30T00:38:00;102000.0;;;4.3;78.2
78679;BME280;67994;59.334;13.528;2024-01-30T00:39:00;102000.0;;;4.4;78.2
78679;BME280;67994;59.334;13.528;2024-01-30T00:40:00;102000.0;;;4.6;77.5
78679;BME280;67994;59.334;13.528;2024-01-30T00:41:00;102000.0;;;4.7;77.2
78679;BME280;67994;59.334;13.528;2024-01-30T00:42:00;102000.0;;;4.8;76.4
78679;BME280;67994;59.334;13.528;2024-01-30T00:43:00;102000.0;;;4.9;76.4
78679;BME280;67994;59.334;13.528;2024-01-30T00:44:00;102000.0;;;4.9;76.3
78679;BME280;67994;59.334;13.528;2024-01-30T00:45:00;102000.0;;;4.9;76.4
78679;BME280;67994;59.334;13.528;2024-01-30T00:46:00;102000.0;;;4.8;76.3
78679;BME280;67994;59.334;13.528;2024-01-30T00:47:00;102000.0;;;4.7;76.5
78679;BME280;67994;59.334;13.528;2024-01-30T00:48:00;102000.0;;;4.5;77.1
78679;BME280;67994;59.334;13.528;2024-01-30T00:49:00;102000.0;;;4.4;77.9
78679;BME280;67994;59.334;13.528;2024-01-30T00:50:00;102000.0;;;4.3;77.9
78679;BME280;67994;59.334;13.528;2024-01-30T00:51:00;102000.0;;;4.4;78.0
78679;BME280;67994;59.334;13.528;2024-01-30T00:52:00;102000.0;;;4.3;78.1
78679;BME280;67994;59.334;13.528;2024-01-30T00:53:00;102000.0;;;4.6;77.6
78679;BME280;67994;59.334;13.528;2024-01-30T00:54:00;102000.0;;;4.5;78.1
78679;BME280;67994;59.334;13.528;2024-01-30T00:55:00;102000.0;;;4.5;78.1
78679;BME280;67994;59.334;13.528;2024-01-30T00:56:00;102000.0;;;4.7;77.5
78679;BME280;67994;59.334;13.528;2024-01-30T00:57:00;102000.0;;;4.6;76.7
78679;BME280;67994;59.334;13.528;2024-01-30T00:58:00;102000.0;;;4.7;76.6
78679;BME280;67994;59.334;13.528;2024-01-30T00:59:00;102000.0;;;4.7;76.6
78679;BME280;67994;59.334;13.528;2024-01-30T01:00:00;102000.0;;;4.5;77.1
78679;BME280;67994;59.334;13.528;2024-01-30T01:01:00;102000.0;;;4.3;77.9
78679;BME280;67994;59.334;13.528;2024-01-30T01:02:00;102000.0;;;4.1;78.5
78679;BME280;67994;59.334;13.528;2024-01-30T01:03:00;102000.0;;;4.0;79.1
78679;BME280;67994;59.334;13.528;2024-01-30T01:04:00;102000.0;;;4.2;78.6
78679;BME280;67994;59.334;13.528;2024-01-30T01:05:00;102000.0;;;4.2;78.6
78679;BME280;67994;59.334;13.528;2024-01-30T01:06:00;102000.0;;;4.3;78.7
78679;BME280;67994;59.334;13.528;2024-01-30T01:07:00;102000.0;;;4.5;77.9
78679;BME280;67994;59.334;13.528;2024-01-30T01:08:00;102000.0;;;4.5;77.5
78679;BME280;67994;59.334;13.528;2024-01-30T01:09:00;102000.0;;;4.4;77.4
78679;BME280;67994;59.334;13.528;2024-01-30T01:10:00;102000.0;;;4.5;77.2
78679;BME280;67994;59.334;13.528;2024-01-30T01:11:00;102000.0;;;4.4;77.2
78679;BME280;67994;59.334;13.528;2024-01-30T01:12:00;102000.0;;;4.4;77.5
78679;BME280;67994;59.334;13.528;2024-01-30T01:13:00;102000.0;;;4.4;77.5
78679;BME280;67994;59.334;13.528;2024-01-30T01:14:00;102000.0;;;3.9;79.1
78679;BME280;67994;59.334;13.528;2024-01-30T01:15:00;102000.0;;;3.8;79.1
78679;BME280;67994;59.334;13.528;2024-01-30T01:16:00;102000.0;;;3.9;78.9
78679;BME280;67994;59.334;13.528;2024-01-30T01:17:00;102000.0;;;4.4;77.9
78679;BME280;67994;59.334;13.528;2024-01-30T01:18:00;102000.0;;;4.5;77.4
78679;BME280;67994;59.334;13.528;2024-01-30T01:19:00;102000.0;;;4.6;77.1
78679;BME280;67994;59.334;13.528;2024-01-30T01:20:00;102000.0;;;4.6;77.2
78679;BME280;67994;59.334;13.528;2024-01-30T01:21:00;102000.0;;;4.6;76.9
78679;BME280;67994;59.334;13.528;2024-01-30T01:22:00;102000.0;;;4.5;77.4
78679;BME280;67994;59.334;13.528;2024-01-30T01:23:00;102000.0;;;4.5;77.4
78679;BME280;67994;59.334;13.528;2024-01-30T01:24:00;102000.0;;;4.6;77.0
78679;BME280;67994;59.334;13.528;2024-01-30T01:25:00;102000.0;;;4.6;76.6
78679;BME280;67994;59.334;13.528;2024-01-30T01:26:00;102000.0;;;4.5;76.7
78679;BME280;67994;59.334;13.528;2024-01-30T01:27:00;102000.0;;;4.3;77.3
78679;BME280;67994;59.334;13.528;2024-01-30T01:28:00;102000.0;;;4.3;77.3
78679;BME280;67994;59.334;13.528;2024-01-30T01:29:00;102000.0;;;4.2;77.9
78679;BME280;67994;59.334;13.528;2024-01-30T01:30:00;102000.0;;;4.1;78.0
78679;BME280;67994;59.334;13.528;2024-01-30T01:31:00;102000.0;;;4.1;78.2
78679;BME280;67994;59.334;13.528;2024-01-30T01:32:00;102000.0;;;4.3;77.9
78679;BME280;67994;59.334;13.528;2024-01-30T01:33:00;102000.0;;;4.2;78.0
78679;BME280;67994;59.334;13.528;2024-01-30T01:34:00;102000.0;;;4.5;77.2
78679;BME280;67994;59.334;13.528;2024-01-30T01:35:00;102000.0;;;4.4;77.4
78679;BME280;67994;59.334;13.528;2024-01-30T01:36:00;102000.0;;;4.5;77.1
78679;BME280;67994;59.334;13.528;2024-01-30T01:37:00;102000.0;;;4.3;77.6
78679;BME280;67994;59.334;13.528;2024-01-30T01:38:00;102000.0;;;4.1;78.1
78679;BME280;67994;59.334;13.528;2024-01-30T01:39:00;102000.0;;;4.1;78.3
78679;BME280;67994;59.334;13.528;2024-01-30T01:40:00;102000.0;;;4.0;78.5
78679;BME280;67994;59.334;13.528;2024-01-30T01:41:00;102000.0;;;4.2;78.3
78679;BME280;67994;59.334;13.528;2024-01-30T01:42:00;102000.0;;;3.7;79.5
78679;BME280;67994;59.334;13.528;2024-01-30T01:43:12;102000.0;;;3.6;79.9
78679;BME280;67994;59.334;13.528;2024-01-30T01:44:00;102000.0;;;3.6;79.9
78679;BME280;67994;59.334;13.528;2024-01-30T01:45:00;102000.0;;;3.4;80.5
78679;BME280;67994;59.334;13.528;2024-01-30T01:46:00;102000.0;;;3.7;80.0
78679;BME280;67994;59.334;13.528;2024-01-30T01:47:00;102000.0;;;3.5;80.3
78679;BME280;67994;59.334;13.528;2024-01-30T01:48:00;102000.0;;;3.5;80.6
78679;BME280;67994;59.334;13.528;2024-01-30T01:49:02;102000.0;;;3.4;80.9
78679;BME280;67994;59.334;13.528;2024-01-30T01:50:00;102000.0;;;3.6;80.2
78679;BME280;67994;59.334;13.528;2024-01-30T01:51:00;102000.0;;;3.7;80.0
78679;BME280;67994;59.334;13.528;2024-01-30T01:52:00;102000.0;;;3.5;80.3
78679;BME280;67994;59.334;13.528;2024-01-30T01:53:01;102000.0;;;3.5;80.3
78679;BME280;67994;59.334;13.528;2024-01-30T01:54:02;102000.0;;;3.6;80.2
78679;BME280;67994;59.334;13.528;2024-01-30T01:55:00;102000.0;;;3.5;80.6
78679;BME280;67994;59.334;13.528;2024-01-30T01:56:00;102000.0;;;3.5;80.8
78679;BME280;67994;59.334;13.528;2024-01-30T01:57:00;102000.0;;;3.5;80.8
78679;BME280;67994;59.334;13.528;2024-01-30T01:58:00;102000.0;;;3.4;80.6
78679;BME280;67994;59.334;13.528;2024-01-30T01:59:04;102000.0;;;3.6;80.4
78679;BME280;67994;59.334;13.528;2024-01-30T02:00:01;102000.0;;;3.7;80.3
78679;BME280;67994;59.334;13.528;2024-01-30T02:01:00;102000.0;;;4.0;79.5
78679;BME280;67994;59.334;13.528;2024-01-30T02:02:02;102000.0;;;4.2;79.0
78679;BME280;67994;59.334;13.528;2024-01-30T02:03:00;102000.0;;;4.3;78.4
78679;BME280;67994;59.334;13.528;2024-01-30T02:04:00;102000.0;;;4.4;77.8
78679;BME280;67994;59.334;13.528;2024-01-30T02:05:00;102000.0;;;4.1;78.3
78679;BME280;67994;59.334;13.528;2024-01-30T02:06:01;102000.0;;;4.3;77.9
78679;BME280;67994;59.334;13.528;2024-01-30T02:07:00;102000.0;;;4.4;77.6
78679;BME280;67994;59.334;13.528;2024-01-30T02:08:01;102000.0;;;4.4;77.3
78679;BME280;67994;59.334;13.528;2024-01-30T02:09:00;102000.0;;;4.5;77.0
78679;BME280;67994;59.334;13.528;2024-01-30T02:10:00;102000.0;;;4.5;77.1
78679;BME280;67994;59.334;13.528;2024-01-30T02:11:00;102000.0;;;4.1;77.9
78679;BME280;67994;59.334;13.528;2024-01-30T02:12:00;102000.0;;;4.0;78.3
78679;BME280;67994;59.334;13.528;2024-01-30T02:13:00;102000.0;;;3.8;78.9
78679;BME280;67994;59.334;13.528;2024-01-30T02:14:02;102000.0;;;3.6;79.6
78679;BME280;67994;59.334;13.528;2024-01-30T02:15:00;102000.0;;;3.2;81.6
78679;BME280;67994;59.334;13.528;2024-01-30T02:16:00;102000.0;;;3.3;81.6
78679;BME280;67994;59.334;13.528;2024-01-30T02:17:00;102000.0;;;3.4;80.8
78679;BME280;67994;59.334;13.528;2024-01-30T02:18:00;102000.0;;;3.6;80.3
78679;BME280;67994;59.334;13.528;2024-01-30T02:19:00;102000.0;;;3.7;79.9
78679;BME280;67994;59.334;13.528;2024-01-30T02:20:00;102000.0;;;3.7;79.9
78679;BME280;67994;59.334;13.528;2024-01-30T02:21:03;102000.0;;;3.6;79.9
78679;BME280;67994;59.334;13.528;2024-01-30T02:22:00;102000.0;;;3.3;80.9
78679;BME280;67994;59.334;13.528;2024-01-30T02:23:00;102000.0;;;3.5;80.4
78679;BME280;67994;59.334;13.528;2024-01-30T02:24:01;102000.0;;;3.8;79.8
78679;BME280;67994;59.334;13.528;2024-01-30T02:25:00;102000.0;;;3.4;80.5
78679;BME280;67994;59.334;13.528;2024-01-30T02:26:00;102000.0;;;3.4;81.1
78679;BME280;67994;59.334;13.528;2024-01-30T02:27:00;102000.0;;;3.1;81.8
78679;BME280;67994;59.334;13.528;2024-01-30T02:28:00;102000.0;;;3.4;80.9
78679;BME280;67994;59.334;13.528;2024-01-30T02:29:00;102000.0;;;3.6;80.4
78679;BME280;67994;59.334;13.528;2024-01-30T02:30:00;102000.0;;;3.5;80.3
78679;BME280;67994;59.334;13.528;2024-01-30T02:31:00;102000.0;;;3.4;81.1
78679;BME280;67994;59.334;13.528;2024-01-30T02:32:00;102000.0;;;3.5;80.5
78679;BME280;67994;59.334;13.528;2024-01-30T02:33:00;102000.0;;;3.6;80.5
78679;BME280;67994;59.334;13.528;2024-01-30T02:34:00;102000.0;;;4.0;79.4
78679;BME280;67994;59.334;13.528;2024-01-30T02:35:00;102000.0;;;4.2;78.6
78679;BME280;67994;59.334;13.528;2024-01-30T02:36:00;102000.0;;;4.3;78.1
78679;BME280;67994;59.334;13.528;2024-01-30T02:37:00;102000.0;;;4.4;77.6
78679;BME280;67994;59.334;13.528;2024-01-30T02:38:00;102000.0;;;4.3;77.7
78679;BME280;67994;59.334;13.528;2024-01-30T02:39:00;102000.0;;;4.3;77.7
78679;BME280;67994;59.334;13.528;2024-01-30T02:40:00;102000.0;;;4.4;77.5
78679;BME280;67994;59.334;13.528;2024-01-30T02:41:00;102000.0;;;4.2;77.7
78679;BME280;67994;59.334;13.528;2024-01-30T02:42:00;102000.0;;;4.0;78.4
78679;BME280;67994;59.334;13.528;2024-01-30T02:43:02;102000.0;;;4.1;78.2
78679;BME280;67994;59.334;13.528;2024-01-30T02:44:00;102000.0;;;3.9;78.8
78679;BME280;67994;59.334;13.528;2024-01-30T02:45:00;102000.0;;;4.1;78.3
78679;BME280;67994;59.334;13.528;2024-01-30T02:46:00;102000.0;;;4.0;78.6
78679;BME280;67994;59.334;13.528;2024-01-30T02:47:00;102000.0;;;4.0;78.6
78679;BME280;67994;59.334;13.528;2024-01-30T02:48:00;102000.0;;;4.0;79.1
78679;BME280;67994;59.334;13.528;2024-01-30T02:49:00;102000.0;;;3.8;78.9
78679;BME280;67994;59.334;13.528;2024-01-30T02:50:00;102000.0;;;3.9;78.8
78679;BME280;67994;59.334;13.528;2024-01-30T02:51:00;102000.0;;;4.2;78.4
78679;BME280;67994;59.334;13.528;2024-01-30T02:52:00;102000.0;;;3.6;79.7
78679;BME280;67994;59.334;13.528;2024-01-30T02:53:00;102000.0;;;3.5;80.2
78679;BME280;67994;59.334;13.528;2024-01-30T02:54:00;102000.0;;;3.5;80.3
78679;BME280;67994;59.334;13.528;2024-01-30T02:55:00;102000.0;;;3.6;80.2
78679;BME280;67994;59.334;13.528;2024-01-30T02:56:03;102000.0;;;3.5;80.2
78679;BME280;67994;59.334;13.528;2024-01-30T02:57:00;102000.0;;;3.6;80.2
78679;BME280;67994;59.334;13.528;2024-01-30T02:58:00;102000.0;;;3.6;79.9
78679;BME280;67994;59.334;13.528;2024-01-30T02:59:00;102000.0;;;3.6;79.9
78679;BME280;67994;59.334;13.528;2024-01-30T03:00:00;102000.0;;;3.5;80.5
78679;BME280;67994;59.334;13.528;2024-01-30T03:01:00;102000.0;;;3.7;80.0
78679;BME280;67994;59.334;13.528;2024-01-30T03:02:00;102000.0;;;3.5;80.3
78679;BME280;67994;59.334;13.528;2024-01-30T03:03:00;102000.0;;;3.4;80.6
78679;BME280;67994;59.334;13.528;2024-01-30T03:04:00;102000.0;;;3.4;80.5
78679;BME280;67994;59.334;13.528;2024-01-30T03:05:00;102000.0;;;3.5;80.3
78679;BME280;67994;59.334;13.528;2024-01-30T03:06:00;102000.0;;;3.7;79.9
78679;BME280;67994;59.334;13.528;2024-01-30T03:07:00;102000.0;;;3.3;81.0
78679;BME280;67994;59.334;13.528;2024-01-30T03:08:00;102000.0;;;3.2;81.3
78679;BME280;67994;59.334;13.528;2024-01-30T03:09:00;102000.0;;;3.4;81.0
78679;BME280;67994;59.334;13.528;2024-01-30T03:10:00;102000.0;;;3.6;80.1
78679;BME280;67994;59.334;13.528;2024-01-30T03:11:00;102000.0;;;3.6;80.1
78679;BME280;67994;59.334;13.528;2024-01-30T03:12:00;102000.0;;;3.8;79.0
78679;BME280;67994;59.334;13.528;2024-01-30T03:13:00;102000.0;;;4.1;79.1
78679;BME280;67994;59.334;13.528;2024-01-30T03:14:00;102000.0;;;4.1;78.8
78679;BME280;67994;59.334;13.528;2024-01-30T03:15:00;102000.0;;;3.8;79.2
78679;BME280;67994;59.334;13.528;2024-01-30T03:16:00;102000.0;;;3.8;79.2
78679;BME280;67994;59.334;13.528;2024-01-30T03:17:00;102000.0;;;3.6;79.8
78679;BME280;67994;59.334;13.528;2024-01-30T03:18:00;102000.0;;;3.5;80.0
78679;BME280;67994;59.334;13.528;2024-01-30T03:19:00;102000.0;;;3.7;79.7
78679;BME280;67994;59.334;13.528;2024-01-30T03:20:00;102000.0;;;3.6;79.9
78679;BME280;67994;59.334;13.528;2024-01-30T03:21:00;102000.0;;;3.6;79.9
78679;BME280;67994;59.334;13.528;2024-01-30T03:22:00;102000.0;;;3.8;79.4
78679;BME280;67994;59.334;13.528;2024-01-30T03:23:00;102000.0;;;3.7;79.7
78679;BME280;67994;59.334;13.528;2024-01-30T03:24:00;102000.0;;;3.8;79.3
78679;BME280;67994;59.334;13.528;2024-01-30T03:25:00;102000.0;;;3.7;79.5
78679;BME280;67994;59.334;13.528;2024-01-30T03:26:00;102000.0;;;3.8;79.2
78679;BME280;67994;59.334;13.528;2024-01-30T03:27:00;102000.0;;;3.8;79.2
78679;BME280;67994;59.334;13.528;2024-01-30T03:28:00;102000.0;;;3.8;79.0
78679;BME280;67994;59.334;13.528;2024-01-30T03:29:00;102000.0;;;4.1;78.4
78679;BME280;67994;59.334;13.528;2024-01-30T03:30:00;102000.0;;;3.9;79.0
78679;BME280;67994;59.334;13.528;2024-01-30T03:31:00;102000.0;;;4.1;78.5
78679;BME280;67994;59.334;13.528;2024-01-30T03:32:00;102000.0;;;4.2;77.9
78679;BME280;67994;59.334;13.528;2024-01-30T03:33:00;102000.0;;;4.3;77.6
78679;BME280;67994;59.334;13.528;2024-01-30T03:34:00;102000.0;;;4.4;77.5
78679;BME280;67994;59.334;13.528;2024-01-30T03:35:00;102000.0;;;4.2;77.9
78679;BME280;67994;59.334;13.528;2024-01-30T03:36:04;102000.0;;;4.0;78.1
78679;BME280;67994;59.334;13.528;2024-01-30T03:37:00;102000.0;;;3.7;79.1
78679;BME280;67994;59.334;13.528;2024-01-30T03:38:00;102000.0;;;3.7;79.3
78679;BME280;67994;59.334;13.528;2024-01-30T03:39:00;102000.0;;;3.6;79.8
78679;BME280;67994;59.334;13.528;2024-01-30T03:40:00;102000.0;;;3.6;79.8
78679;BME280;67994;59.334;13.528;2024-01-30T03:41:00;102000.0;;;3.8;79.4
78679;BME280;67994;59.334;13.528;2024-01-30T03:42:00;102000.0;;;3.5;80.2
78679;BME280;67994;59.334;13.528;2024-01-30T03:43:00;102000.0;;;3.3;80.9
78679;BME280;67994;59.334;13.528;2024-01-30T03:44:00;102000.0;;;3.4;80.9
78679;BME280;67994;59.334;13.528;2024-01-30T03:45:01;102000.0;;;3.4;80.7
78679;BME280;67994;59.334;13.528;2024-01-30T03:46:00;102000.0;;;3.6;80.1
78679;BME280;67994;59.334;13.528;2024-01-30T03:47:00;102000.0;;;3.7;80.0
78679;BME280;67994;59.334;13.528;2024-01-30T03:48:00;102000.0;;;3.7;80.0
78679;BME280;67994;59.334;13.528;2024-01-30T03:49:00;102000.0;;;3.5;80.2
78679;BME280;67994;59.334;13.528;2024-01-30T03:50:00;102000.0;;;3.4;80.5
78679;BME280;67994;59.334;13.528;2024-01-30T03:51:00;102000.0;;;3.5;80.5
78679;BME280;67994;59.334;13.528;2024-01-30T03:52:00;102000.0;;;3.5;80.3
78679;BME280;67994;59.334;13.528;2024-01-30T03:53:00;102000.0;;;3.5;80.5
78679;BME280;67994;59.334;13.528;2024-01-30T03:54:00;102000.0;;;3.7;80.0
78679;BME280;67994;59.334;13.528;2024-01-30T03:55:00;102000.0;;;3.9;79.2
78679;BME280;67994;59.334;13.528;2024-01-30T03:56:00;102000.0;;;3.9;78.9
78679;BME280;67994;59.334;13.528;2024-01-30T03:57:00;102000.0;;;3.9;79.0
78679;BME280;67994;59.334;13.528;2024-01-30T03:58:00;102000.0;;;3.8;79.7
78679;BME280;67994;59.334;13.528;2024-01-30T03:59:00;102000.0;;;3.6;80.4
78679;BME280;67994;59.334;13.528;2024-01-30T04:00:00;102000.0;;;3.3;80.9
78679;BME280;67994;59.334;13.528;2024-01-30T04:01:00;102000.0;;;3.2;80.9
78679;BME280;67994;59.334;13.528;2024-01-30T04:02:00;102000.0;;;3.5;80.9
78679;BME280;67994;59.334;13.528;2024-01-30T04:03:00;102000.0;;;3.3;81.4
78679;BME280;67994;59.334;13.528;2024-01-30T04:04:00;102000.0;;;3.2;81.4
78679;BME280;67994;59.334;13.528;2024-01-30T04:05:00;102000.0;;;3.2;81.5
78679;BME280;67994;59.334;13.528;2024-01-30T04:06:00;102000.0;;;3.5;80.7
78679;BME280;67994;59.334;13.528;2024-01-30T04:07:00;102000.0;;;3.5;80.4
78679;BME280;67994;59.334;13.528;2024-01-30T04:08:00;102000.0;;;3.5;80.6
78679;BME280;67994;59.334;13.528;2024-01-30T04:09:00;102000.0;;;3.6;80.2
78679;BME280;67994;59.334;13.528;2024-01-30T04:10:00;102000.0;;;3.7;79.9
78679;BME280;67994;59.334;13.528;2024-01-30T04:11:04;102000.0;;;3.7;79.8
78679;BME280;67994;59.334;13.528;2024-01-30T04:12:00;102000.0;;;3.6;79.8
78679;BME280;67994;59.334;13.528;2024-01-30T04:13:00;102000.0;;;3.4;80.4
78679;BME280;67994;59.334;13.528;2024-01-30T04:14:00;102000.0;;;3.4;80.4
78679;BME280;67994;59.334;13.528;2024-01-30T04:15:00;102000.0;;;3.4;80.6
78679;BME280;67994;59.334;13.528;2024-01-30T04:16:00;102000.0;;;3.6;80.2
78679;BME280;67994;59.334;13.528;2024-01-30T04:17:00;102000.0;;;3.5;80.2
78679;BME280;67994;59.334;13.528;2024-01-30T04:18:00;102000.0;;;3.7;79.8
78679;BME280;67994;59.334;13.528;2024-01-30T04:19:00;102000.0;;;3.6;79.8
78679;BME280;67994;59.334;13.528;2024-01-30T04:20:00;102000.0;;;3.6;79.9
78679;BME280;67994;59.334;13.528;2024-01-30T04:21:00;102000.0;;;3.8;79.4
78679;BME280;67994;59.334;13.528;2024-01-30T04:22:00;102000.0;;;3.6;79.9
78679;BME280;67994;59.334;13.528;2024-01-30T04:23:01;102000.0;;;3.5;80.1
78679;BME280;67994;59.334;13.528;2024-01-30T04:24:00;102000.0;;;3.3;80.6
78679;BME280;67994;59.334;13.528;2024-01-30T04:25:00;102000.0;;;3.5;80.4
78679;BME280;67994;59.334;13.528;2024-01-30T04:26:13;102000.0;;;3.3;80.8
78679;BME280;67994;59.334;13.528;2024-01-30T04:27:00;102000.0;;;3.5;80.4
78679;BME280;67994;59.334;13.528;2024-01-30T04:28:00;102000.0;;;3.3;80.9
78679;BME280;67994;59.334;13.528;2024-01-30T04:29:00;102000.0;;;3.4;80.7
78679;BME280;67994;59.334;13.528;2024-01-30T04:30:00;102000.0;;;3.3;80.9
78679;BME280;67994;59.334;13.528;2024-01-30T04:31:00;102000.0;;;3.7;79.9
78679;BME280;67994;59.334;13.528;2024-01-30T04:32:00;102000.0;;;3.6;79.6
78679;BME280;67994;59.334;13.528;2024-01-30T04:33:00;102000.0;;;3.8;79.5
78679;BME280;67994;59.334;13.528;2024-01-30T04:34:00;102000.0;;;3.7;79.6
78679;BME280;67994;59.334;13.528;2024-01-30T04:35:00;102000.0;;;3.8;79.2
78679;BME280;67994;59.334;13.528;2024-01-30T04:36:00;102000.0;;;3.6;79.9
78679;BME280;67994;59.334;13.528;2024-01-30T04:37:00;102000.0;;;3.4;80.2
78679;BME280;67994;59.334;13.528;2024-01-30T04:38:00;102000.0;;;3.6;79.8
78679;BME280;67994;59.334;13.528;2024-01-30T04:39:00;102000.0;;;3.8;79.4
78679;BME280;67994;59.334;13.528;2024-01-30T04:40:00;102000.0;;;3.8;79.1
78679;BME280;67994;59.334;13.528;2024-01-30T04:41:00;102000.0;;;3.9;79.0
78679;BME280;67994;59.334;13.528;2024-01-30T04:42:00;102000.0;;;3.8;79.0
78679;BME280;67994;59.334;13.528;2024-01-30T04:43:00;102000.0;;;3.8;79.1
78679;BME280;67994;59.334;13.528;2024-01-30T04:44:00;102000.0;;;3.5;80.0
78679;BME280;67994;59.334;13.528;2024-01-30T04:45:00;102000.0;;;3.5;80.0
78679;BME280;67994;59.334;13.528;2024-01-30T04:46:00;102000.0;;;3.5;80.1
78679;BME280;67994;59.334;13.528;2024-01-30T04:47:00;102000.0;;;3.5;80.2
78679;BME280;67994;59.334;13.528;2024-01-30T04:48:00;102000.0;;;3.5;80.2
78679;BME280;67994;59.334;13.528;2024-01-30T04:49:00;102000.0;;;3.4;80.5
78679;BME280;67994;59.334;13.528;2024-01-30T04:50:00;102000.0;;;3.3;80.8
78679;BME280;67994;59.334;13.528;2024-01-30T04:51:00;102000.0;;;3.4;80.4
78679;BME280;67994;59.334;13.528;2024-01-30T04:52:00;102000.0;;;3.5;80.3
78679;BME280;67994;59.334;13.528;2024-01-30T04:53:00;102000.0;;;3.5;80.1
78679;BME280;67994;59.334;13.528;2024-01-30T04:54:00;102000.0;;;3.5;80.1
78679;BME280;67994;59.334;13.528;2024-01-30T04:55:00;102000.0;;;3.5;80.3
78679;BME280;67994;59.334;13.528;2024-01-30T04:56:00;102000.0;;;3.6;80.0
78679;BME280;67994;59.334;13.528;2024-01-30T04:57:00;102000.0;;;3.6;79.8
78679;BME280;67994;59.334;13.528;2024-01-30T04:58:00;102000.0;;;3.8;79.4
78679;BME280;67994;59.334;13.528;2024-01-30T04:59:02;102000.0;;;4.0;78.8
78679;BME280;67994;59.334;13.528;2024-01-30T05:00:00;101900.0;;;4.0;78.8
78679;BME280;67994;59.334;13.528;2024-01-30T05:01:00;101900.0;;;3.7;79.9
78679;BME280;67994;59.334;13.528;2024-01-30T05:02:00;101900.0;;;3.5;80.2
78679;BME280;67994;59.334;13.528;2024-01-30T05:03:00;102000.0;;;3.7;79.8
78679;BME280;67994;59.334;13.528;2024-01-30T05:04:00;102000.0;;;3.6;80.0
78679;BME280;67994;59.334;13.528;2024-01-30T05:05:00;102000.0;;;3.6;80.0
78679;BME280;67994;59.334;13.528;2024-01-30T05:06:00;101900.0;;;3.4;80.5
78679;BME280;67994;59.334;13.528;2024-01-30T05:07:00;102000.0;;;3.7;79.8
78679;BME280;67994;59.334;13.528;2024-01-30T05:08:00;102000.0;;;3.9;79.3
78679;BME280;67994;59.334;13.528;2024-01-30T05:09:00;102000.0;;;3.8;79.2
78679;BME280;67994;59.334;13.528;2024-01-30T05:10:00;102000.0;;;3.9;78.8
78679;BME280;67994;59.334;13.528;2024-01-30T05:11:00;102000.0;;;3.9;78.8
78679;BME280;67994;59.334;13.528;2024-01-30T05:12:01;102000.0;;;3.7;79.6
78679;BME280;67994;59.334;13.528;2024-01-30T05:13:00;102000.0;;;3.6;79.6
78679;BME280;67994;59.334;13.528;2024-01-30T05:14:00;102000.0;;;4.1;78.7
78679;BME280;67994;59.334;13.528;2024-01-30T05:15:00;101900.0;;;4.2;78.4
78679;BME280;67994;59.334;13.528;2024-01-30T05:16:02;102000.0;;;4.1;78.4
78679;BME280;67994;59.334;13.528;2024-01-30T05:17:00;102000.0;;;4.0;78.6
78679;BME280;67994;59.334;13.528;2024-01-30T05:18:00;101900.0;;;3.8;79.2
78679;BME280;67994;59.334;13.528;2024-01-30T05:19:00;102000.0;;;3.8;79.2
78679;BME280;67994;59.334;13.528;2024-01-30T05:20:00;102000.0;;;3.8;79.1
78679;BME280;67994;59.334;13.528;2024-01-30T05:21:00;101900.0;;;3.8;79.1
78679;BME280;67994;59.334;13.528;2024-01-30T05:22:00;101900.0;;;3.8;79.2
78679;BME280;67994;59.334;13.528;2024-01-30T05:23:00;101900.0;;;4.0;78.8
78679;BME280;67994;59.334;13.528;2024-01-30T05:24:00;101900.0;;;3.9;78.8
78679;BME280;67994;59.334;13.528;2024-01-30T05:25:00;101900.0;;;3.8;79.2
78679;BME280;67994;59.334;13.528;2024-01-30T05:26:00;101900.0;;;4.1;78.4